createdAt,value
2022-10-20T00:02:15.951Z,12.90
2022-10-20T00:04:42.696Z,12.90
2022-10-20T00:07:09.370Z,12.80
2022-10-20T00:09:36.034Z,12.80
2022-10-20T00:12:02.818Z,12.70
2022-10-20T00:14:29.500Z,12.70
2022-10-20T00:16:56.192Z,12.60
2022-10-20T00:19:22.867Z,12.60
2022-10-20T00:21:49.526Z,12.50
2022-10-20T00:24:16.354Z,12.50
2022-10-20T00:26:43.018Z,12.50
2022-10-20T00:29:10.000Z,12.50
2022-10-20T00:31:36.801Z,12.40
2022-10-20T00:34:03.644Z,12.40
2022-10-20T00:36:30.491Z,12.40
2022-10-20T00:39:00.070Z,12.30
2022-10-20T00:41:28.188Z,12.20
2022-10-20T00:43:57.819Z,12.30
2022-10-20T00:46:37.048Z,12.30
2022-10-20T00:49:13.815Z,12.20
2022-10-20T00:51:40.757Z,12.20
2022-10-20T00:54:20.300Z,12.20
2022-10-20T00:56:49.348Z,12.10
2022-10-20T00:59:21.538Z,12.10
2022-10-20T01:01:49.001Z,12.10
2022-10-20T01:04:16.310Z,12.00
2022-10-20T01:06:43.282Z,12.00
2022-10-20T01:09:10.252Z,11.90
2022-10-20T01:15:09.330Z,11.90
2022-10-20T01:17:45.964Z,12.00
2022-10-20T01:20:36.905Z,12.00
2022-10-20T01:23:06.338Z,12.00
2022-10-20T01:25:35.846Z,12.00
2022-10-20T01:28:14.957Z,12.10
2022-10-20T01:30:46.628Z,12.10
2022-10-20T01:33:34.238Z,12.10
2022-10-20T01:36:21.107Z,12.10
2022-10-20T01:38:54.699Z,12.00
2022-10-20T01:41:44.896Z,12.10
2022-10-20T01:44:14.869Z,12.00
2022-10-20T01:46:44.122Z,11.90
2022-10-20T01:49:12.869Z,11.90
2022-10-20T01:54:30.730Z,11.70
2022-10-20T01:57:19.152Z,11.60
2022-10-20T02:00:00.950Z,11.60
2022-10-20T02:03:02.905Z,11.50
2022-10-20T02:05:48.208Z,11.40
2022-10-20T02:08:33.767Z,11.40
2022-10-20T02:11:04.324Z,11.50
2022-10-20T02:13:31.944Z,11.40
2022-10-20T02:16:04.682Z,11.50
2022-10-20T02:18:36.930Z,11.50
2022-10-20T02:21:04.173Z,11.50
2022-10-20T02:23:36.563Z,11.40
2022-10-20T02:26:09.483Z,11.40
2022-10-20T02:28:39.684Z,11.40
2022-10-20T02:31:07.013Z,11.30
2022-10-20T02:33:33.825Z,11.30
2022-10-20T02:36:03.863Z,11.30
2022-10-20T02:38:30.558Z,11.30
2022-10-20T02:40:57.264Z,11.30
2022-10-20T02:43:23.964Z,11.30
2022-10-20T02:45:50.613Z,11.40
2022-10-20T02:48:17.278Z,11.40
2022-10-20T02:50:43.951Z,11.30
2022-10-20T02:53:10.779Z,11.30
2022-10-20T02:55:37.482Z,11.30
2022-10-20T02:58:04.169Z,11.30
2022-10-20T03:00:31.618Z,11.20
2022-10-20T03:02:58.275Z,11.20
2022-10-20T03:05:25.053Z,11.20
2022-10-20T03:07:51.726Z,11.20
2022-10-20T03:10:18.562Z,11.20
2022-10-20T03:12:45.333Z,11.20
2022-10-20T03:15:12.268Z,11.20
2022-10-20T03:17:39.175Z,11.20
2022-10-20T03:20:07.764Z,11.10
2022-10-20T03:22:34.442Z,11.20
2022-10-20T03:25:01.157Z,11.20
2022-10-20T03:27:27.835Z,11.20
2022-10-20T03:29:54.500Z,11.10
2022-10-20T03:32:21.152Z,11.10
2022-10-20T03:34:47.828Z,11.10
2022-10-20T03:37:14.663Z,11.10
2022-10-20T03:39:41.497Z,11.10
2022-10-20T03:42:08.188Z,11.10
2022-10-20T03:44:34.858Z,11.10
2022-10-20T03:47:01.539Z,11.10
2022-10-20T03:49:28.250Z,11.10
2022-10-20T03:51:54.915Z,11.10
2022-10-20T03:54:21.586Z,11.10
2022-10-20T03:56:48.251Z,11.10
2022-10-20T03:59:14.946Z,11.10
2022-10-20T04:01:45.193Z,11.10
2022-10-20T04:04:12.332Z,11.10
2022-10-20T04:06:39.143Z,11.00
2022-10-20T04:09:06.162Z,11.00
2022-10-20T04:11:33.233Z,11.00
2022-10-20T04:14:00.083Z,11.00
2022-10-20T04:16:26.823Z,10.90
2022-10-20T04:18:53.846Z,10.90
2022-10-20T04:21:20.728Z,10.90
2022-10-20T04:23:47.537Z,10.90
2022-10-20T04:26:15.863Z,10.90
2022-10-20T04:28:42.757Z,10.90
2022-10-20T04:31:09.720Z,10.90
2022-10-20T04:33:36.454Z,10.80
2022-10-20T04:36:06.427Z,10.80
2022-10-20T04:38:34.781Z,10.70
2022-10-20T04:41:04.427Z,10.80
2022-10-20T04:43:34.242Z,10.80
2022-10-20T04:46:08.339Z,10.80
2022-10-20T04:48:37.232Z,10.80
2022-10-20T04:51:09.909Z,10.80
2022-10-20T04:53:36.894Z,10.80
2022-10-20T04:56:05.225Z,10.80
2022-10-20T04:58:32.387Z,10.80
2022-10-20T05:01:08.426Z,10.80
2022-10-20T05:03:36.433Z,10.70
2022-10-20T05:06:11.735Z,10.70
2022-10-20T05:08:39.366Z,10.70
2022-10-20T05:11:06.909Z,10.60
2022-10-20T05:13:33.752Z,10.60
2022-10-20T05:16:00.481Z,10.60
2022-10-20T05:18:27.886Z,10.60
2022-10-20T05:21:08.505Z,10.60
2022-10-20T05:23:36.370Z,10.60
2022-10-20T05:26:04.728Z,10.70
2022-10-20T05:28:31.530Z,10.70
2022-10-20T05:31:02.890Z,10.70
2022-10-20T05:33:29.846Z,10.60
2022-10-20T05:36:22.869Z,10.60
2022-10-20T05:38:51.981Z,10.60
2022-10-20T05:41:21.016Z,10.60
2022-10-20T05:43:49.953Z,10.50
2022-10-20T05:46:17.502Z,10.50
2022-10-20T05:48:44.768Z,10.50
2022-10-20T05:51:15.272Z,10.50
2022-10-20T05:53:43.856Z,10.40
2022-10-20T05:56:12.879Z,10.40
2022-10-20T05:58:40.841Z,10.50
2022-10-20T06:01:09.984Z,10.40
2022-10-20T06:03:37.491Z,10.40
2022-10-20T06:06:04.822Z,10.50
2022-10-20T06:08:32.986Z,10.50
2022-10-20T06:11:08.690Z,10.50
2022-10-20T06:13:36.011Z,10.50
2022-10-20T06:16:07.275Z,10.50
2022-10-20T06:18:34.584Z,10.50
2022-10-20T06:21:08.336Z,10.40
2022-10-20T06:23:35.134Z,10.50
2022-10-20T06:26:04.045Z,10.50
2022-10-20T06:28:32.633Z,10.50
2022-10-20T06:30:59.856Z,10.60
2022-10-20T06:33:30.199Z,10.60
2022-10-20T06:36:01.278Z,10.60
2022-10-20T06:38:28.685Z,10.60
2022-10-20T06:40:55.542Z,10.60
2022-10-20T06:43:22.773Z,10.60
2022-10-20T06:46:00.900Z,10.60
2022-10-20T06:48:28.536Z,10.60
2022-10-20T06:51:10.942Z,10.60
2022-10-20T06:53:41.477Z,10.60
2022-10-20T06:56:13.366Z,10.60
2022-10-20T06:58:42.179Z,10.60
2022-10-20T07:01:17.279Z,10.60
2022-10-20T07:03:45.920Z,10.70
2022-10-20T07:06:19.542Z,10.80
2022-10-20T07:08:47.111Z,10.90
2022-10-20T07:11:16.374Z,11.10
2022-10-20T07:13:43.493Z,11.10
2022-10-20T07:16:14.004Z,11.20
2022-10-20T07:18:41.065Z,11.20
2022-10-20T07:21:19.319Z,11.40
2022-10-20T07:23:46.466Z,11.50
2022-10-20T07:26:22.442Z,11.60
2022-10-20T07:28:55.788Z,11.70
2022-10-20T07:31:32.645Z,11.70
2022-10-20T07:34:12.983Z,11.80
2022-10-20T07:36:43.539Z,11.90
2022-10-20T07:39:11.737Z,12.00
2022-10-20T07:41:39.624Z,12.10
2022-10-20T07:44:06.969Z,12.20
2022-10-20T07:46:33.646Z,12.30
2022-10-20T07:49:24.029Z,12.40
2022-10-20T07:51:47.175Z,12.60
2022-10-20T07:54:13.896Z,12.80
2022-10-20T07:56:42.286Z,12.90
2022-10-20T07:59:34.688Z,13.00
2022-10-20T08:02:01.559Z,13.10
2022-10-20T08:04:31.258Z,13.10
2022-10-20T08:06:59.060Z,13.20
2022-10-20T08:09:25.886Z,13.20
2022-10-20T08:11:55.395Z,13.30
2022-10-20T08:14:23.297Z,13.30
2022-10-20T08:16:57.160Z,13.40
2022-10-20T08:19:31.950Z,13.30
2022-10-20T08:21:58.757Z,13.40
2022-10-20T08:24:25.473Z,13.50
2022-10-20T08:26:52.201Z,13.80
2022-10-20T08:29:18.886Z,13.80
2022-10-20T08:31:45.561Z,13.80
2022-10-20T08:34:12.245Z,13.80
2022-10-20T08:36:39.061Z,13.90
2022-10-20T08:39:06.475Z,14.00
2022-10-20T08:42:02.693Z,14.00
2022-10-20T08:44:32.234Z,14.00
2022-10-20T08:47:01.920Z,14.00
2022-10-20T08:49:32.735Z,14.10
2022-10-20T08:52:00.105Z,14.20
2022-10-20T08:54:27.083Z,14.30
2022-10-20T08:56:53.767Z,14.50
2022-10-20T08:59:28.489Z,14.80
2022-10-20T09:01:56.353Z,15.00
2022-10-20T09:04:34.494Z,15.20
2022-10-20T09:07:09.972Z,15.30
2022-10-20T09:09:37.114Z,15.50
2022-10-20T09:12:06.950Z,15.60
2022-10-20T09:14:36.632Z,15.70
2022-10-20T09:17:07.932Z,15.80
2022-10-20T09:19:36.284Z,15.80
2022-10-20T09:22:06.947Z,16.00
2022-10-20T09:24:36.604Z,16.10
2022-10-20T09:27:36.060Z,16.10
2022-10-20T09:30:19.190Z,16.20
2022-10-20T09:32:48.163Z,16.20
2022-10-20T09:35:22.102Z,16.10
2022-10-20T09:38:18.113Z,16.10
2022-10-20T09:40:54.564Z,16.00
2022-10-20T09:43:21.586Z,16.10
2022-10-20T09:46:04.042Z,16.20
2022-10-20T09:48:47.705Z,16.30
2022-10-20T09:51:18.875Z,16.40
2022-10-20T09:53:58.250Z,16.50
2022-10-20T09:56:35.221Z,16.60
2022-10-20T09:59:05.874Z,16.70
2022-10-20T10:01:32.700Z,16.70
2022-10-20T10:04:01.904Z,16.70
2022-10-20T10:06:37.802Z,16.90
2022-10-20T10:09:28.932Z,16.90
2022-10-20T10:12:04.382Z,17.00
2022-10-20T10:14:35.381Z,17.10
2022-10-20T10:17:02.388Z,17.20
2022-10-20T10:19:31.582Z,17.20
2022-10-20T10:22:01.141Z,17.10
2022-10-20T10:24:39.614Z,17.20
2022-10-20T10:27:28.614Z,17.40
2022-10-20T10:30:14.138Z,17.60
2022-10-20T10:32:44.915Z,17.70
2022-10-20T10:35:37.965Z,17.80
2022-10-20T10:38:04.821Z,17.80
2022-10-20T10:41:07.578Z,18.00
2022-10-20T10:43:55.930Z,18.20
2022-10-20T10:46:37.097Z,18.40
2022-10-20T10:49:03.752Z,18.60
2022-10-20T10:51:42.378Z,18.70
2022-10-20T10:54:27.620Z,18.70
2022-10-20T10:57:12.540Z,18.90
2022-10-20T10:59:44.297Z,18.90
2022-10-20T11:02:24.290Z,19.00
2022-10-20T11:05:25.130Z,19.10
2022-10-20T11:08:08.912Z,19.30
2022-10-20T11:11:01.790Z,19.40
2022-10-20T11:13:37.644Z,19.60
2022-10-20T11:16:29.319Z,19.60
2022-10-20T11:19:14.767Z,19.80
2022-10-20T11:22:00.415Z,19.80
2022-10-20T11:24:56.712Z,19.60
2022-10-20T11:27:27.521Z,19.70
2022-10-20T11:30:05.007Z,19.90
2022-10-20T11:32:54.548Z,20.10
2022-10-20T11:35:42.970Z,20.00
2022-10-20T11:38:14.448Z,20.00
2022-10-20T11:40:48.224Z,20.10
2022-10-20T11:43:25.982Z,20.20
2022-10-20T11:45:55.889Z,20.20
2022-10-20T11:48:52.676Z,20.20
2022-10-20T11:51:31.492Z,20.20
2022-10-20T11:54:04.038Z,20.30
2022-10-20T11:56:49.235Z,20.30
2022-10-20T11:59:43.809Z,20.30
2022-10-20T12:02:48.129Z,20.20
2022-10-20T12:06:10.142Z,20.30
2022-10-20T12:09:12.112Z,20.30
2022-10-20T12:12:00.585Z,20.40
2022-10-20T12:14:33.210Z,20.30
2022-10-20T12:17:14.295Z,20.30
2022-10-20T12:19:41.133Z,20.20
2022-10-20T12:22:13.917Z,20.10
2022-10-20T12:25:03.372Z,20.10
2022-10-20T12:27:30.332Z,20.30
2022-10-20T12:30:04.171Z,20.30
2022-10-20T12:33:08.422Z,20.20
2022-10-20T12:35:57.538Z,20.00
2022-10-20T12:38:24.536Z,20.10
2022-10-20T12:40:58.130Z,20.10
2022-10-20T12:43:48.237Z,20.10
2022-10-20T12:46:27.055Z,20.20
2022-10-20T12:48:59.796Z,20.30
2022-10-20T12:51:49.860Z,20.40
2022-10-20T12:54:30.218Z,20.50
2022-10-20T12:57:03.960Z,20.70
2022-10-20T12:59:30.605Z,21.00
2022-10-20T13:02:09.413Z,21.30
2022-10-20T13:04:55.034Z,21.40
2022-10-20T13:07:46.872Z,21.40
2022-10-20T13:10:31.606Z,21.30
2022-10-20T13:13:01.236Z,21.30
2022-10-20T13:15:45.213Z,21.30
2022-10-20T13:18:12.035Z,21.20
2022-10-20T13:20:51.673Z,21.10
2022-10-20T13:23:30.751Z,21.10
2022-10-20T13:26:16.957Z,20.80
2022-10-20T13:28:52.637Z,20.70
2022-10-20T13:31:28.001Z,20.60
2022-10-20T13:34:06.026Z,20.50
2022-10-20T13:36:54.413Z,20.30
2022-10-20T13:39:40.049Z,20.20
2022-10-20T13:42:25.618Z,19.90
2022-10-20T13:45:29.831Z,19.60
2022-10-20T13:48:18.232Z,19.30
2022-10-20T13:50:49.392Z,19.10
2022-10-20T13:53:39.055Z,18.90
2022-10-20T13:56:08.724Z,18.80
2022-10-20T13:59:26.090Z,18.70
2022-10-20T14:01:56.552Z,18.60
2022-10-20T14:04:34.725Z,18.50
2022-10-20T14:07:15.984Z,18.40
2022-10-20T14:09:46.614Z,18.30
2022-10-20T14:12:22.999Z,18.30
2022-10-20T14:14:49.778Z,18.30
2022-10-20T14:17:21.342Z,18.30
2022-10-20T14:19:48.171Z,18.20
2022-10-20T14:22:23.829Z,18.10
2022-10-20T14:24:53.112Z,18.00
2022-10-20T14:27:38.655Z,18.00
2022-10-20T14:30:08.091Z,17.90
2022-10-20T14:32:39.857Z,17.80
2022-10-20T14:35:23.478Z,17.70
2022-10-20T14:37:58.428Z,17.70
2022-10-20T14:40:32.709Z,17.60
2022-10-20T14:43:04.613Z,17.50
2022-10-20T14:48:01.239Z,17.40
2022-10-20T14:50:30.683Z,17.40
2022-10-20T14:52:57.406Z,17.30
2022-10-20T14:55:28.219Z,17.30
2022-10-20T14:57:55.906Z,17.30
2022-10-20T15:00:29.550Z,17.30
2022-10-20T15:02:58.639Z,17.10
2022-10-20T15:05:33.653Z,17.00
2022-10-20T15:08:31.000Z,16.90
2022-10-20T15:10:58.461Z,16.90
2022-10-20T15:13:31.315Z,16.70
2022-10-20T15:15:59.990Z,16.60
2022-10-20T15:18:28.045Z,16.50
2022-10-20T15:20:55.593Z,16.50
2022-10-20T15:23:27.432Z,16.40
2022-10-20T15:26:04.394Z,16.30
2022-10-20T15:28:39.752Z,16.20
2022-10-20T15:31:12.716Z,16.10
2022-10-20T15:33:40.518Z,16.10
2022-10-20T15:36:15.883Z,15.90
2022-10-20T15:38:43.233Z,15.90
2022-10-20T15:41:22.298Z,15.80
2022-10-20T15:43:49.217Z,15.80
2022-10-20T15:46:16.977Z,15.70
2022-10-20T15:48:43.960Z,15.60
2022-10-20T15:51:33.153Z,15.60
2022-10-20T15:53:59.963Z,15.50
2022-10-20T15:56:26.645Z,15.40
2022-10-20T15:58:53.824Z,15.40
2022-10-20T16:01:21.223Z,15.30
2022-10-20T16:03:48.788Z,15.20
2022-10-20T16:06:17.456Z,15.20
2022-10-20T16:08:46.378Z,15.10
2022-10-20T16:11:14.421Z,15.10
2022-10-20T16:13:41.371Z,15.00
2022-10-20T16:16:11.706Z,14.90
2022-10-20T16:18:38.393Z,14.90
2022-10-20T16:21:05.928Z,14.80
2022-10-20T16:23:39.459Z,14.70
2022-10-20T16:26:13.431Z,14.70
2022-10-20T16:28:40.452Z,14.70
2022-10-20T16:31:09.817Z,14.80
2022-10-20T16:33:37.237Z,14.70
2022-10-20T16:38:40.212Z,14.60
2022-10-20T16:41:13.397Z,14.50
2022-10-20T16:43:41.867Z,14.50
2022-10-20T16:46:11.090Z,14.50
2022-10-20T16:48:40.447Z,14.50
2022-10-20T16:51:10.901Z,14.40
2022-10-20T16:53:38.338Z,14.40
2022-10-20T16:56:05.541Z,14.30
2022-10-20T16:58:32.455Z,14.30
2022-10-20T17:01:09.556Z,14.20
2022-10-20T17:03:37.650Z,14.20
2022-10-20T17:06:07.085Z,14.00
2022-10-20T17:08:36.079Z,13.90
2022-10-20T17:11:06.024Z,13.90
2022-10-20T17:13:33.729Z,13.80
2022-10-20T17:16:12.016Z,13.80
2022-10-20T17:18:39.297Z,13.80
2022-10-20T17:21:06.452Z,13.80
2022-10-20T17:23:37.401Z,13.70
2022-10-20T17:26:08.957Z,13.60
2022-10-20T17:28:37.070Z,13.60
2022-10-20T17:31:11.765Z,13.60
2022-10-20T17:33:39.497Z,13.60
2022-10-20T17:36:06.929Z,13.60
2022-10-20T17:38:33.892Z,13.60
2022-10-20T17:41:08.770Z,13.70
2022-10-20T17:43:35.589Z,13.50
2022-10-20T17:46:08.004Z,13.50
2022-10-20T17:48:38.539Z,13.40
2022-10-20T17:51:06.434Z,13.50
2022-10-20T17:53:35.664Z,13.50
2022-10-20T17:56:04.086Z,13.50
2022-10-20T17:58:30.992Z,13.50
2022-10-20T18:01:18.309Z,13.50
2022-10-20T18:03:46.941Z,13.40
2022-10-20T18:06:19.153Z,13.50
2022-10-20T18:08:46.643Z,13.50
2022-10-20T18:11:21.837Z,13.40
2022-10-20T18:13:48.631Z,13.40
2022-10-20T18:16:18.069Z,13.40
2022-10-20T18:18:45.213Z,13.40
2022-10-20T18:21:13.902Z,13.40
2022-10-20T18:23:43.632Z,13.40
2022-10-20T18:26:12.864Z,13.30
2022-10-20T18:28:41.945Z,13.30
2022-10-20T18:31:14.710Z,13.20
2022-10-20T18:33:44.232Z,13.30
2022-10-20T18:36:13.185Z,13.30
2022-10-20T18:38:41.771Z,13.30
2022-10-20T18:41:12.200Z,13.20
2022-10-20T18:43:38.922Z,13.20
2022-10-20T18:46:07.330Z,13.30
2022-10-20T18:48:39.378Z,13.30
2022-10-20T18:51:07.469Z,13.30
2022-10-20T18:53:35.532Z,13.30
2022-10-20T18:56:22.150Z,13.30
2022-10-20T18:59:00.128Z,13.20
2022-10-20T19:01:28.598Z,13.30
2022-10-20T19:03:56.905Z,13.30
2022-10-20T19:06:28.975Z,13.30
2022-10-20T19:08:57.977Z,13.30
2022-10-20T19:11:27.095Z,13.40
2022-10-20T19:13:53.813Z,13.40
2022-10-20T19:16:24.050Z,13.40
2022-10-20T19:18:53.021Z,13.40
2022-10-20T19:23:58.305Z,13.40
2022-10-20T19:26:28.303Z,13.30
2022-10-20T19:28:59.582Z,13.20
2022-10-20T19:31:40.135Z,13.20
2022-10-20T19:34:10.722Z,13.20
2022-10-20T19:36:38.044Z,13.10
2022-10-20T19:39:05.814Z,13.10
2022-10-20T19:41:32.644Z,13.10
2022-10-20T19:43:59.599Z,13.10
2022-10-20T19:46:26.706Z,13.10
2022-10-20T19:48:53.416Z,13.00
2022-10-20T19:51:20.813Z,13.00
2022-10-20T19:53:48.133Z,13.10
2022-10-20T19:56:15.801Z,13.10
2022-10-20T19:58:46.544Z,13.20
2022-10-20T20:01:14.411Z,13.20
2022-10-20T20:03:41.141Z,13.10
2022-10-20T20:06:16.935Z,13.20
2022-10-20T20:08:45.780Z,13.20
2022-10-20T20:11:23.297Z,13.20
2022-10-20T20:13:51.634Z,13.20
2022-10-20T20:16:18.444Z,13.20
2022-10-20T20:18:45.149Z,13.10
2022-10-20T20:21:11.856Z,13.20
2022-10-20T20:23:58.398Z,13.10
2022-10-20T20:26:27.160Z,13.00
2022-10-20T20:28:55.379Z,12.80
2022-10-20T20:31:23.115Z,12.80
2022-10-20T20:33:49.898Z,12.70
2022-10-20T20:36:16.886Z,12.70
2022-10-20T20:38:43.611Z,12.70
2022-10-20T20:41:16.070Z,12.80
2022-10-20T20:43:45.176Z,12.80
2022-10-20T20:46:18.130Z,12.80
2022-10-20T20:48:45.348Z,12.80
2022-10-20T20:51:12.955Z,12.90
2022-10-20T20:53:40.590Z,12.90
2022-10-20T20:56:10.450Z,12.90
2022-10-20T20:58:38.112Z,12.80
2022-10-20T21:01:12.500Z,12.70
2022-10-20T21:03:39.975Z,12.70
2022-10-20T21:06:07.815Z,12.70
2022-10-20T21:08:36.007Z,12.70
2022-10-20T21:11:06.950Z,12.80
2022-10-20T21:13:35.304Z,12.80
2022-10-20T21:16:14.254Z,12.80
2022-10-20T21:18:42.437Z,12.80
2022-10-20T21:21:33.282Z,12.80
2022-10-20T21:24:01.667Z,12.80
2022-10-20T21:26:29.962Z,12.80
2022-10-20T21:28:57.457Z,12.70
2022-10-20T21:31:26.016Z,12.70
2022-10-20T21:33:54.753Z,12.60
2022-10-20T21:36:22.645Z,12.50
2022-10-20T21:38:50.039Z,12.40
2022-10-20T21:41:25.484Z,12.40
2022-10-20T21:43:54.426Z,12.40
2022-10-20T21:46:22.722Z,12.40
2022-10-20T21:48:52.168Z,12.50
2022-10-20T21:51:25.019Z,12.50
2022-10-20T21:53:59.794Z,12.50
2022-10-20T21:56:26.632Z,12.50
2022-10-20T21:58:54.295Z,12.50
2022-10-20T22:01:23.536Z,12.50
2022-10-20T22:03:51.581Z,12.40
2022-10-20T22:06:21.645Z,12.40
2022-10-20T22:08:55.516Z,12.30
2022-10-20T22:11:27.988Z,12.30
2022-10-20T22:13:55.070Z,12.20
2022-10-20T22:16:24.765Z,12.10
2022-10-20T22:19:00.448Z,12.00
2022-10-20T22:21:28.884Z,11.90
2022-10-20T22:23:57.188Z,11.90
2022-10-20T22:26:26.482Z,11.90
2022-10-20T22:28:53.228Z,11.80
2022-10-20T22:31:20.501Z,11.80
2022-10-20T22:33:47.355Z,11.80
2022-10-20T22:36:14.048Z,11.90
2022-10-20T22:38:40.757Z,11.90
2022-10-20T22:41:07.500Z,12.00
2022-10-20T22:43:34.182Z,12.00
2022-10-20T22:46:00.892Z,12.00
2022-10-20T22:48:27.668Z,12.00
2022-10-20T22:50:54.332Z,12.00
2022-10-20T22:53:21.121Z,12.00
2022-10-20T22:55:47.792Z,12.00
2022-10-20T22:58:14.506Z,12.00
2022-10-20T23:00:43.535Z,11.90
2022-10-20T23:03:10.738Z,11.90
2022-10-20T23:05:37.794Z,12.00
2022-10-20T23:08:05.202Z,12.00
2022-10-20T23:10:31.852Z,12.00
2022-10-20T23:12:58.563Z,12.10
2022-10-20T23:15:25.299Z,12.00
2022-10-20T23:17:51.996Z,12.00
2022-10-20T23:20:18.663Z,12.00
2022-10-20T23:22:47.955Z,12.00
2022-10-20T23:25:15.029Z,12.00
2022-10-20T23:27:41.702Z,12.00
2022-10-20T23:30:08.959Z,12.00
2022-10-20T23:32:35.662Z,12.10
2022-10-20T23:35:02.351Z,12.10
2022-10-20T23:37:29.050Z,12.10
2022-10-20T23:39:55.717Z,12.10
2022-10-20T23:42:22.413Z,12.10
2022-10-20T23:44:49.213Z,12.10
2022-10-20T23:47:16.688Z,12.10
2022-10-20T23:49:43.373Z,12.10
2022-10-20T23:52:10.044Z,12.10
2022-10-20T23:54:36.711Z,12.10
2022-10-20T23:57:04.048Z,12.00
2022-10-20T23:59:30.646Z,12.00
